Time;durP1;ratioP1;P1;durP2;ratioP2;P2;SDS_P1;SDS_P2;PMS_P1;PMS_P2;Temp;Humidity;BMP_temperature;BMP_pressure;BME280_temperature;BME280_humidity;BME280_pressure;Samples;Min_cycle;Max_cycle;Signal;HPM_P1;HPM_P2
2022/06/13 00:01:59;;;;;;;9.48;3.40;;;18.40;85.40;;;;;;5030117;28;20075;-85
2022/06/13 00:04:24;;;;;;;13.80;4.25;;;18.40;86.00;;;;;;5032922;28;20087;-85
2022/06/13 00:06:50;;;;;;;10.15;3.83;;;18.30;86.20;;;;;;4996680;28;20391;-84
2022/06/13 00:09:16;;;;;;;8.63;3.83;;;18.30;86.60;;;;;;5022182;28;20026;-86
2022/06/13 00:11:42;;;;;;;11.35;3.67;;;18.20;87.20;;;;;;4997439;28;20030;-85
2022/06/13 00:14:08;;;;;;;11.50;4.20;;;18.20;87.80;;;;;;5012854;28;20028;-86
2022/06/13 00:16:52;;;;;;;10.15;3.47;;;18.20;88.20;;;;;;5012812;28;20406;-86
2022/06/13 00:19:18;;;;;;;16.95;5.28;;;18.10;88.60;;;;;;5002863;28;20387;-86
2022/06/13 00:21:44;;;;;;;14.18;4.30;;;18.00;89.00;;;;;;5009045;28;20048;-86
2022/06/13 00:24:10;;;;;;;10.13;3.67;;;18.00;89.40;;;;;;5017936;28;20056;-86
2022/06/13 00:26:37;;;;;;;12.00;3.75;;;17.90;89.70;;;;;;5001551;28;20030;-86
2022/06/13 00:29:18;;;;;;;12.07;3.90;;;17.90;90.10;;;;;;5016048;28;20057;-86
2022/06/13 00:31:43;;;;;;;12.15;4.05;;;17.90;90.40;;;;;;5018628;28;20022;-86
2022/06/13 00:34:09;;;;;;;11.75;3.92;;;17.80;90.70;;;;;;5020129;28;20030;-86
2022/06/13 00:36:35;;;;;;;15.38;4.63;;;17.80;90.90;;;;;;5020206;28;20022;-85
2022/06/13 00:39:00;;;;;;;12.73;4.40;;;17.70;90.90;;;;;;5000497;28;20080;-86
2022/06/13 00:41:37;;;;;;;12.30;4.10;;;17.70;91.10;;;;;;5033257;28;20104;-86
2022/06/13 00:44:17;;;;;;;11.38;4.28;;;17.60;91.20;;;;;;5038045;28;20109;-86
2022/06/13 00:46:43;;;;;;;10.85;4.28;;;17.60;91.60;;;;;;5036579;28;20032;-86
2022/06/13 00:49:12;;;;;;;10.57;3.88;;;17.60;91.80;;;;;;5019018;28;20105;-87
2022/06/13 00:51:48;;;;;;;11.45;4.22;;;17.50;92.00;;;;;;5036071;28;20474;-85
2022/06/13 00:54:17;;;;;;;7.78;3.65;;;17.50;92.40;;;;;;5020004;28;20052;-85
2022/06/13 00:56:44;;;;;;;12.68;4.28;;;17.40;92.70;;;;;;5031502;28;20037;-85
2022/06/13 00:59:13;;;;;;;16.13;4.95;;;17.40;93.10;;;;;;5037486;28;20025;-85
2022/06/13 01:01:39;;;;;;;14.02;4.43;;;17.40;93.40;;;;;;5035885;28;20471;-86
2022/06/13 01:04:06;;;;;;;13.32;4.82;;;17.40;93.60;;;;;;5035999;28;20029;-87
2022/06/13 01:06:45;;;;;;;9.25;3.70;;;17.40;93.80;;;;;;4999918;28;20136;-86
2022/06/13 01:09:14;;;;;;;9.25;4.50;;;17.40;93.90;;;;;;5030799;28;20022;-86
2022/06/13 01:11:53;;;;;;;10.32;3.92;;;17.30;94.10;;;;;;5036768;28;20079;-86
2022/06/13 01:14:27;;;;;;;11.18;4.35;;;17.30;94.30;;;;;;5015647;28;20022;-85
2022/06/13 01:17:12;;;;;;;14.20;4.68;;;17.30;94.40;;;;;;5030294;28;20025;-86
2022/06/13 01:19:41;;;;;;;10.55;4.22;;;17.30;94.70;;;;;;5035127;28;20030;-85
2022/06/13 01:22:24;;;;;;;11.93;4.78;;;17.30;94.90;;;;;;5034770;28;20053;-86
2022/06/13 01:25:24;;;;;;;11.65;4.93;;;17.30;95.10;;;;;;5035023;28;20489;-86
2022/06/13 01:28:01;;;;;;;9.98;4.25;;;17.30;95.30;;;;;;5027545;28;20120;-86
2022/06/13 01:30:58;;;;;;;13.50;4.20;;;17.30;95.50;;;;;;5030547;28;20033;-86
2022/06/13 01:33:32;;;;;;;12.30;4.60;;;17.30;95.80;;;;;;5034895;28;20037;-86
2022/06/13 01:36:26;;;;;;;14.45;5.15;;;17.30;96.00;;;;;;5034350;28;20049;-86
2022/06/13 01:39:11;;;;;;;22.30;7.20;;;17.30;96.20;;;;;;5034932;28;20037;-86
2022/06/13 01:42:16;;;;;;;15.57;6.78;;;17.30;96.30;;;;;;5014901;28;20080;-86
2022/06/13 01:45:11;;;;;;;20.00;7.40;;;17.30;96.50;;;;;;4964407;28;20037;-86
2022/06/13 01:47:45;;;;;;;14.93;5.40;;;17.30;96.60;;;;;;4981516;28;20039;-86
2022/06/13 01:50:24;;;;;;;22.80;6.00;;;17.30;96.70;;;;;;5034454;28;20045;-86
2022/06/13 01:53:00;;;;;;;16.73;5.88;;;17.30;96.80;;;;;;5020541;28;20167;-86
2022/06/13 01:55:44;;;;;;;13.88;5.70;;;17.30;97.00;;;;;;5024281;28;20022;-86
2022/06/13 01:58:28;;;;;;;16.80;6.43;;;17.20;97.10;;;;;;5028386;28;20029;-86
2022/06/13 02:01:09;;;;;;;14.65;6.07;;;17.20;97.20;;;;;;5027828;28;20032;-87
2022/06/13 02:03:43;;;;;;;18.90;6.57;;;17.20;97.30;;;;;;5028378;28;20037;-87
2022/06/13 02:06:19;;;;;;;16.70;6.57;;;17.20;97.40;;;;;;5029054;28;20025;-86
2022/06/13 02:09:16;;;;;;;21.13;6.82;;;17.20;97.60;;;;;;5026378;28;20021;-86
2022/06/13 02:11:49;;;;;;;14.43;5.88;;;17.20;97.80;;;;;;5030855;28;20032;-83
2022/06/13 02:14:14;;;;;;;15.20;5.55;;;17.20;97.90;;;;;;5033927;28;20029;-83
2022/06/13 02:17:01;;;;;;;14.00;5.68;;;17.20;98.10;;;;;;5033774;28;20018;-83
2022/06/13 02:19:32;;;;;;;16.77;5.20;;;17.20;98.30;;;;;;5033746;28;20024;-83
2022/06/13 02:22:09;;;;;;;12.95;5.35;;;17.20;98.40;;;;;;5034564;28;20111;-83
2022/06/13 02:24:39;;;;;;;13.57;5.03;;;17.20;98.40;;;;;;5033794;28;20021;-83
2022/06/13 02:27:08;;;;;;;12.02;5.47;;;17.10;98.60;;;;;;5029980;28;20025;-83
2022/06/13 02:29:55;;;;;;;13.65;5.40;;;17.10;98.80;;;;;;5013814;28;20033;-83
2022/06/13 02:32:26;;;;;;;11.98;5.00;;;17.10;98.90;;;;;;5018600;28;20116;-83
2022/06/13 02:34:57;;;;;;;14.02;5.57;;;17.10;99.00;;;;;;5033531;28;20479;-83
2022/06/13 02:37:52;;;;;;;;;;;17.10;99.10;;;;;;5021105;28;20501;-83
2022/06/13 02:40:25;;;;;;;13.80;5.55;;;17.10;99.40;;;;;;5012027;28;19951;-83
2022/06/13 02:43:03;;;;;;;14.32;5.97;;;17.00;99.30;;;;;;5033449;28;20425;-83
2022/06/13 02:45:37;;;;;;;13.18;5.82;;;17.00;99.50;;;;;;5033272;28;20030;-83
2022/06/13 02:48:47;;;;;;;17.80;6.15;;;16.90;99.70;;;;;;5032148;28;20079;-83
2022/06/13 02:51:23;;;;;;;14.25;5.63;;;16.90;99.90;;;;;;5006657;28;20463;-83
2022/06/13 02:54:00;;;;;;;17.10;6.10;;;16.80;99.90;;;;;;5020825;28;20025;-83
2022/06/13 02:57:31;;;;;;;14.90;5.57;;;16.80;99.90;;;;;;5013472;28;20026;-83
2022/06/13 02:59:42;;;;;;;12.80;5.78;;;16.80;99.90;;;;;;5009459;28;20076;-83
2022/06/13 03:02:11;;;;;;;15.02;6.22;;;16.70;99.90;;;;;;5032993;28;20022;-83
2022/06/13 03:04:42;;;;;;;15.48;6.22;;;16.70;99.90;;;;;;5032935;28;20041;-83
2022/06/13 03:07:20;;;;;;;;;;;16.70;99.90;;;;;;5033247;28;20025;-83
2022/06/13 03:10:01;;;;;;;14.77;6.57;;;16.70;99.90;;;;;;5031493;28;19928;-83
2022/06/13 03:12:52;;;;;;;20.35;8.15;;;16.70;99.90;;;;;;5022432;28;20536;-83
2022/06/13 03:15:24;;;;;;;14.13;6.40;;;16.70;99.90;;;;;;5032879;28;20024;-83
2022/06/13 03:18:16;;;;;;;21.58;6.72;;;16.70;99.90;;;;;;5032667;28;20490;-83
2022/06/13 03:20:49;;;;;;;12.25;5.40;;;16.70;99.90;;;;;;5032713;28;20017;-83
2022/06/13 03:23:29;;;;;;;14.20;6.38;;;16.70;99.90;;;;;;5031433;28;20483;-83
2022/06/13 03:26:03;;;;;;;13.53;6.40;;;16.70;99.90;;;;;;5033837;28;20025;-83
2022/06/13 03:28:49;;;;;;;14.30;5.80;;;16.70;99.90;;;;;;5018479;28;20113;-81
2022/06/13 03:31:19;;;;;;;13.02;6.28;;;16.70;99.90;;;;;;5034039;28;20097;-82
2022/06/13 03:33:49;;;;;;;16.08;5.85;;;16.70;99.90;;;;;;5032459;28;20076;-82
2022/06/13 03:36:23;;;;;;;14.82;6.07;;;16.70;99.90;;;;;;5018471;28;20113;-82
2022/06/13 03:39:01;;;;;;;13.32;6.47;;;16.70;99.90;;;;;;5032415;28;20084;-82
2022/06/13 03:41:32;;;;;;;17.10;7.13;;;16.70;99.90;;;;;;5015625;28;20451;-82
2022/06/13 03:44:15;;;;;;;15.75;6.15;;;16.70;99.90;;;;;;5024406;28;20022;-82
2022/06/13 03:47:00;;;;;;;16.17;6.53;;;16.70;99.90;;;;;;5028536;28;20029;-82
2022/06/13 03:49:44;;;;;;;12.80;6.60;;;16.70;99.90;;;;;;5032479;28;20498;-82
2022/06/13 03:52:13;;;;;;;11.52;6.22;;;16.70;99.90;;;;;;5033493;28;20021;-82
2022/06/13 03:54:50;;;;;;;14.10;5.78;;;16.70;99.90;;;;;;5032209;28;20109;-83
2022/06/13 03:57:27;;;;;;;13.48;6.68;;;16.70;99.90;;;;;;5032250;28;20067;-83
2022/06/13 04:00:00;;;;;;;13.27;6.65;;;16.70;99.90;;;;;;5032085;28;20036;-83
2022/06/13 04:02:31;;;;;;;19.73;6.57;;;16.70;99.90;;;;;;5013082;28;20025;-83
2022/06/13 04:04:57;;;;;;;14.55;6.78;;;16.60;99.90;;;;;;5025890;28;20017;-83
2022/06/13 04:07:26;;;;;;;13.30;6.32;;;16.70;99.90;;;;;;5031908;28;20359;-83
2022/06/13 04:10:00;;;;;;;15.80;6.82;;;16.60;99.90;;;;;;5021806;28;20502;-83
2022/06/13 04:12:38;;;;;;;15.43;7.18;;;16.70;99.90;;;;;;5031763;28;20018;-83
2022/06/13 04:15:20;;;;;;;13.70;6.82;;;16.60;99.90;;;;;;5032211;28;20026;-83
2022/06/13 04:18:03;;;;;;;14.75;7.45;;;16.60;99.90;;;;;;5033472;28;20104;-83
2022/06/13 04:21:05;;;;;;;15.77;7.60;;;16.60;99.90;;;;;;5031355;28;20033;-83
2022/06/13 04:23:35;;;;;;;17.55;7.20;;;16.60;99.90;;;;;;5025013;28;20403;-83
2022/06/13 04:26:08;;;;;;;17.25;8.48;;;16.60;99.90;;;;;;5024790;28;20164;-82
2022/06/13 04:28:39;;;;;;;15.65;7.30;;;16.60;99.90;;;;;;5031666;28;20064;-82
2022/06/13 04:31:08;;;;;;;14.90;7.43;;;16.60;99.90;;;;;;5029931;28;20474;-83
2022/06/13 04:33:41;;;;;;;13.63;7.68;;;16.60;99.90;;;;;;5012001;28;20026;-82
2022/06/13 04:36:10;;;;;;;15.98;7.22;;;16.60;99.90;;;;;;5025829;28;20503;-82
2022/06/13 04:38:39;;;;;;;13.90;7.30;;;16.60;99.90;;;;;;5019377;28;20382;-82
2022/06/13 04:41:05;;;;;;;15.85;7.47;;;16.60;99.90;;;;;;5031649;28;20025;-82
2022/06/13 04:43:39;;;;;;;16.58;7.43;;;16.60;99.90;;;;;;4999573;28;20029;-82
2022/06/13 04:46:11;;;;;;;15.45;7.70;;;16.60;99.90;;;;;;5023827;28;20036;-82
2022/06/13 04:48:40;;;;;;;17.80;8.50;;;16.60;99.90;;;;;;5030179;28;20472;-82
2022/06/13 04:51:13;;;;;;;12.85;6.75;;;16.60;99.90;;;;;;5019354;28;20391;-83
2022/06/13 04:54:05;;;;;;;14.15;7.90;;;16.60;99.90;;;;;;5031573;28;20022;-82
2022/06/13 04:56:32;;;;;;;16.33;8.45;;;16.60;99.90;;;;;;5018110;28;20109;-82
2022/06/13 04:58:59;;;;;;;14.93;7.32;;;16.60;99.90;;;;;;5032916;28;20033;-83
2022/06/13 05:01:34;;;;;;;16.63;8.57;;;16.60;99.90;;;;;;5012969;28;20037;-82
2022/06/13 05:04:04;;;;;;;18.98;8.73;;;16.60;99.90;;;;;;5031509;28;20065;-83
2022/06/13 05:06:39;;;;;;;19.40;8.18;;;16.60;99.90;;;;;;5022646;28;20037;-83
2022/06/13 05:09:09;;;;;;;18.08;8.18;;;16.60;99.90;;;;;;5011808;28;20116;-83
2022/06/13 05:11:48;;;;;;;15.35;8.00;;;16.60;99.90;;;;;;5017110;28;20029;-83
2022/06/13 05:14:21;;;;;;;19.02;8.10;;;16.50;99.90;;;;;;5024221;28;20026;-81
2022/06/13 05:16:56;;;;;;;17.75;7.93;;;16.60;99.90;;;;;;5028787;28;20096;-81
2022/06/13 05:19:43;;;;;;;14.35;8.05;;;16.60;99.90;;;;;;5023521;28;20140;-81
2022/06/13 05:22:13;;;;;;;20.67;8.90;;;16.60;99.90;;;;;;5030791;28;20045;-81
2022/06/13 05:25:04;;;;;;;20.85;8.18;;;16.60;99.90;;;;;;5024837;28;20036;-82
2022/06/13 05:27:30;;;;;;;12.35;7.18;;;16.60;99.90;;;;;;5027963;28;20152;-82
2022/06/13 05:29:56;;;;;;;15.77;7.75;;;16.60;99.90;;;;;;4989281;28;20117;-82
2022/06/13 05:32:23;;;;;;;14.50;7.25;;;16.60;99.90;;;;;;4999934;28;20439;-82
2022/06/13 05:34:49;;;;;;;12.90;7.32;;;16.60;99.90;;;;;;5015365;28;20113;-83
2022/06/13 05:37:16;;;;;;;15.07;7.47;;;16.70;99.90;;;;;;5015626;28;20057;-82
2022/06/13 05:39:42;;;;;;;17.80;8.02;;;16.70;99.90;;;;;;5013476;28;20022;-82
2022/06/13 05:42:11;;;;;;;14.85;7.78;;;16.70;99.90;;;;;;5027896;28;20052;-82
2022/06/13 05:44:38;;;;;;;12.20;7.10;;;16.80;99.90;;;;;;5021052;28;20052;-82
2022/06/13 05:47:04;;;;;;;18.52;7.50;;;16.80;99.90;;;;;;5034265;28;20394;-82
2022/06/13 05:49:30;;;;;;;17.73;7.22;;;16.90;99.90;;;;;;5029673;28;20022;-82
2022/06/13 05:51:56;;;;;;;17.50;7.72;;;16.90;99.90;;;;;;5013154;28;20036;-82
2022/06/13 05:54:22;;;;;;;16.08;6.97;;;16.90;99.90;;;;;;5019350;28;20092;-82
2022/06/13 05:56:47;;;;;;;17.35;6.80;;;16.90;99.90;;;;;;5022390;28;20528;-84
2022/06/13 05:59:13;;;;;;;15.95;6.65;;;17.00;99.90;;;;;;5000383;28;20033;-83
2022/06/13 06:01:39;;;;;;;13.88;6.28;;;17.00;99.90;;;;;;4999196;28;20036;-84
2022/06/13 06:04:05;;;;;;;15.45;6.03;;;17.00;99.90;;;;;;5009581;28;20034;-83
2022/06/13 06:06:33;;;;;;;13.90;6.07;;;17.00;99.90;;;;;;5026390;28;20041;-83
2022/06/13 06:09:00;;;;;;;19.38;6.68;;;17.00;99.90;;;;;;5016222;28;20112;-84
2022/06/13 06:11:29;;;;;;;17.27;6.97;;;17.00;99.90;;;;;;5014357;28;20045;-84
2022/06/13 06:13:55;;;;;;;16.33;5.60;;;17.10;99.90;;;;;;5005865;28;20037;-83
2022/06/13 06:16:22;;;;;;;16.70;5.47;;;17.10;99.90;;;;;;5025571;28;20415;-84
2022/06/13 06:18:48;;;;;;;15.10;5.63;;;17.10;99.90;;;;;;5014043;28;20137;-83
2022/06/13 06:21:14;;;;;;;10.68;5.68;;;17.20;99.90;;;;;;5001279;28;20026;-84
2022/06/13 06:23:40;;;;;;;13.88;4.85;;;17.20;99.90;;;;;;5022089;28;20148;-83
2022/06/13 06:26:07;;;;;;;14.85;4.30;;;17.20;99.90;;;;;;5013718;28;20112;-83
2022/06/13 06:28:33;;;;;;;12.73;4.20;;;17.20;99.90;;;;;;5016423;28;20037;-83
2022/06/13 06:31:00;;;;;;;10.32;3.95;;;17.30;99.90;;;;;;5033547;28;20463;-83
2022/06/13 06:33:27;;;;;;;7.47;3.45;;;17.30;99.90;;;;;;5019552;28;20029;-83
2022/06/13 06:35:53;;;;;;;10.07;3.88;;;17.30;99.90;;;;;;5033639;28;20025;-83
2022/06/13 06:38:24;;;;;;;9.20;3.65;;;17.40;99.90;;;;;;5034573;28;20100;-83
2022/06/13 06:40:51;;;;;;;8.85;3.45;;;17.40;99.90;;;;;;5017433;28;20026;-83
2022/06/13 06:43:16;;;;;;;9.13;3.53;;;17.40;99.90;;;;;;5028152;28;20043;-83
2022/06/13 06:45:43;;;;;;;10.25;3.33;;;17.50;99.90;;;;;;4997272;28;20116;-83
2022/06/13 06:48:17;;;;;;;8.15;3.05;;;17.50;99.90;;;;;;5025964;28;20025;-83
2022/06/13 06:50:44;;;;;;;12.85;3.65;;;17.60;99.90;;;;;;5024907;28;20491;-83
2022/06/13 06:53:11;;;;;;;8.90;2.65;;;17.60;99.90;;;;;;5010989;28;20121;-83
2022/06/13 07:01:10;;;;;;;7.63;3.15;;;17.70;99.90;;;;;;5018264;28;20100;-83
2022/06/13 07:03:36;;;;;;;8.02;2.55;;;17.70;99.90;;;;;;5020775;28;20036;-83
2022/06/13 07:06:01;;;;;;;8.73;2.90;;;17.70;99.90;;;;;;5016447;28;20029;-83
2022/06/13 07:08:28;;;;;;;9.18;2.80;;;17.70;99.90;;;;;;5010791;28;20439;-83
2022/06/13 07:10:54;;;;;;;15.85;3.40;;;17.70;99.90;;;;;;5008249;28;20029;-83
2022/06/13 07:13:20;;;;;;;8.43;3.20;;;17.80;99.90;;;;;;5032658;28;20013;-81
2022/06/13 07:15:48;;;;;;;8.02;3.00;;;17.80;99.90;;;;;;5032799;28;20394;-82
2022/06/13 07:18:14;;;;;;;9.93;3.58;;;17.80;99.90;;;;;;4998689;28;20044;-81
2022/06/13 07:20:46;;;;;;;9.77;3.00;;;17.80;99.90;;;;;;5032574;28;20083;-82
2022/06/13 07:23:12;;;;;;;7.90;2.90;;;17.90;99.90;;;;;;5016322;28;20124;-82
2022/06/13 07:25:37;;;;;;;8.50;2.90;;;17.90;99.90;;;;;;5026837;28;20030;-82
2022/06/13 07:28:03;;;;;;;8.93;2.70;;;17.90;99.90;;;;;;5008972;28;20372;-82
2022/06/13 07:30:29;;;;;;;13.25;3.47;;;18.00;99.90;;;;;;5032421;28;20037;-82
2022/06/13 07:32:56;;;;;;;10.55;3.22;;;18.00;99.90;;;;;;5004876;28;20137;-81
2022/06/13 07:35:24;;;;;;;8.85;3.00;;;18.10;99.90;;;;;;5012829;28;20096;-82
2022/06/13 07:40:36;;;;;;;7.93;2.25;;;18.10;99.90;;;;;;5033808;28;20063;-82
2022/06/13 07:43:05;;;;;;;9.32;2.42;;;18.20;99.90;;;;;;5032568;28;20107;-82
2022/06/13 07:45:35;;;;;;;5.03;2.00;;;18.20;99.90;;;;;;5032207;28;20036;-82
2022/06/13 07:48:00;;;;;;;7.50;2.22;;;18.20;99.90;;;;;;5032389;28;20025;-82
2022/06/13 07:50:28;;;;;;;5.90;1.70;;;18.30;99.90;;;;;;4997282;28;20045;-82
2022/06/13 07:52:54;;;;;;;5.55;1.77;;;18.30;99.80;;;;;;5015798;28;20414;-82
2022/06/13 07:55:22;;;;;;;4.05;1.50;;;18.40;99.10;;;;;;5033525;28;20022;-82
2022/06/13 07:57:48;;;;;;;4.28;1.63;;;18.40;98.40;;;;;;5016456;28;20049;-82
2022/06/13 08:00:27;;;;;;;6.30;1.65;;;18.50;98.10;;;;;;5003876;28;20467;-82
2022/06/13 08:02:55;;;;;;;5.97;1.90;;;18.50;97.90;;;;;;5033417;28;20038;-82
2022/06/13 08:08:46;;;;;;;5.57;1.60;;;18.70;97.80;;;;;;5025623;28;20040;-83
2022/06/13 08:11:16;;;;;;;5.50;1.80;;;18.70;97.20;;;;;;5032001;28;20014;-82
2022/06/13 08:13:42;;;;;;;5.40;1.40;;;18.80;97.00;;;;;;5012855;28;20088;-82
2022/06/13 08:16:09;;;;;;;6.40;1.38;;;18.80;96.10;;;;;;5026108;28;20010;-82
2022/06/13 08:18:36;;;;;;;5.55;1.40;;;18.90;95.80;;;;;;5023912;28;20030;-82
2022/06/13 08:21:02;;;;;;;9.75;2.08;;;18.90;95.30;;;;;;5011821;28;20030;-83
2022/06/13 08:23:28;;;;;;;5.47;1.48;;;18.90;94.70;;;;;;5010668;28;20057;-83
2022/06/13 08:25:54;;;;;;;4.43;1.98;;;19.00;94.70;;;;;;5009028;28;20026;-83
2022/06/13 08:28:20;;;;;;;5.45;1.50;;;19.10;94.80;;;;;;4995718;28;20486;-83
2022/06/13 08:30:49;;;;;;;5.13;1.60;;;19.10;94.80;;;;;;5025950;28;20026;-83
2022/06/13 08:33:15;;;;;;;5.97;1.30;;;19.20;94.70;;;;;;5022005;28;20463;-83
2022/06/13 08:36:12;;;;;;;3.08;1.30;;;19.20;94.60;;;;;;5077072;23;20076;-86
2022/06/13 08:46:31;;;;;;;;;;;;;;;;;;;;;
2022/06/13 08:53:48;;;;;;;;;;;;;;;;;;;;;
2022/06/13 08:56:51;;;;;;;6.50;0.90;;;19.50;93.20;;;;;;4913377;29;20046;-84
2022/06/13 09:03:36;;;;;;;3.97;1.15;;;19.60;93.30;;;;;;4848492;29;20030;-84
2022/06/13 09:07:01;;;;;;;;;;;;;;;;;;;;;
2022/06/13 09:10:42;;;;;;;;;;;;;;;;;;;;;
2022/06/13 09:17:36;;;;;;;;;;;;;;;;;;;;;
2022/06/13 09:30:58;;;;;;;4.82;1.27;;;20.10;93.90;;;;;;4898507;29;20052;-85
2022/06/13 09:34:09;;;;;;;4.45;1.30;;;20.20;93.20;;;;;;4920638;29;20451;-85
2022/06/13 09:37:21;;;;;;;5.68;1.38;;;20.20;92.30;;;;;;4910477;29;20178;-85
2022/06/13 09:40:06;;;;;;;4.57;1.30;;;20.20;92.20;;;;;;4963314;28;20117;-85
2022/06/13 09:46:22;;;;;;;;;;;;;;;;;;;;;
2022/06/13 09:49:36;;;;;;;4.65;1.48;;;20.40;92.70;;;;;;5008195;28;20018;-84
2022/06/13 09:59:32;;;;;;;4.97;1.15;;;20.50;91.70;;;;;;4962252;28;20080;-85
2022/06/13 10:05:48;;;;;;;3.67;1.10;;;20.50;91.30;;;;;;4991247;28;20022;-85
2022/06/13 10:09:18;;;;;;;;;;;;;;;;;;;;;
2022/06/13 10:15:41;;;;;;;;;;;;;;;;;;;;;
2022/06/13 10:18:37;;;;;;;;;;;;;;;;;;;;;
2022/06/13 10:25:01;;;;;;;;;;;;;;;;;;;;;
2022/06/13 10:30:44;;;;;;;4.55;1.38;;;20.60;90.20;;;;;;4990260;28;20022;-84
2022/06/13 10:33:50;;;;;;;;;;;;;;;;;;;;;
2022/06/13 10:40:23;;;;;;;;;;;;;;;;;;;;;
2022/06/13 10:43:42;;;;;;;;;;;;;;;;;;;;;
2022/06/13 10:49:58;;;;;;;5.70;1.10;;;20.70;89.10;;;;;;4982447;28;20519;-85
2022/06/13 10:53:14;;;;;;;;;;;;;;;;;;;;;
2022/06/13 10:56:40;;;;;;;;;;;;;;;;;;;;;
2022/06/13 11:02:39;;;;;;;3.92;0.93;;;21.00;89.10;;;;;;4998891;28;20037;-84
2022/06/13 11:05:55;;;;;;;;;;;;;;;;;;;;;
2022/06/13 11:08:27;;;;;;;8.88;1.70;;;21.00;87.30;;;;;;4981714;28;20051;-84
2022/06/13 11:11:58;;;;;;;;;;;;;;;;;;;;;
2022/06/13 11:25:27;;;;;;;;;;;;;;;;;;;;;
2022/06/13 11:38:47;;;;;;;;;;;;;;;;;;;;;
2022/06/13 11:42:15;;;;;;;;;;;;;;;;;;;;;
2022/06/13 11:45:36;;;;;;;4.10;1.17;;;21.30;79.70;;;;;;4976470;28;20064;-86
2022/06/13 11:48:41;;;;;;;;;;;;;;;;;;;;;
2022/06/13 11:51:57;;;;;;;;;;;;;;;;;;;;;
2022/06/13 12:02:33;;;;;;;6.40;1.20;;;21.40;79.30;;;;;;4958670;28;20073;-85
2022/06/13 12:05:58;;;;;;;;;;;;;;;;;;;;;
2022/06/13 12:12:18;;;;;;;5.13;1.20;;;21.50;76.90;;;;;;4916204;29;20397;-85
2022/06/13 12:15:09;;;;;;;3.03;0.95;;;21.50;75.60;;;;;;4914181;29;20038;-86
2022/06/13 12:18:49;;;;;;;;;;;;;;;;;;;;;
2022/06/13 12:40:06;;;;;;;2.55;0.80;;;22.10;72.90;;;;;;4826069;29;20060;-85
2022/06/13 12:46:40;;;;;;;;;;;;;;;;;;;;;
2022/06/13 13:06:34;;;;;;;;;;;;;;;;;;;;;
2022/06/13 13:20:30;;;;;;;;;;;;;;;;;;;;;
2022/06/13 13:26:59;;;;;;;;;;;;;;;;;;;;;
2022/06/13 13:30:30;;;;;;;;;;;;;;;;;;;;;
2022/06/13 13:33:28;;;;;;;4.70;1.30;;;22.60;68.90;;;;;;5015104;28;20034;-85
2022/06/13 13:50:08;;;;;;;;;;;;;;;;;;;;;
2022/06/13 13:59:34;;;;;;;6.05;1.60;;;22.90;67.60;;;;;;4894957;29;20028;-91
2022/06/13 14:03:27;;;;;;;;;;;;;;;;;;;;;
2022/06/13 14:10:28;;;;;;;;;;;;;;;;;;;;;
2022/06/13 14:16:56;;;;;;;3.65;1.17;;;23.00;65.50;;;;;;4895440;29;20033;-86
2022/06/13 14:23:42;;;;;;;;;;;;;;;;;;;;;
2022/06/13 14:36:12;;;;;;;4.95;1.30;;;23.20;64.50;;;;;;4963875;28;20132;-86
2022/06/13 14:39:40;;;;;;;;;;;;;;;;;;;;;
2022/06/13 14:54:03;;;;;;;;;;;;;;;;;;;;;
2022/06/13 14:56:41;;;;;;;5.45;1.35;;;23.20;63.30;;;;;;4965159;28;20030;-84
2022/06/13 15:06:51;;;;;;;;;;;;;;;;;;;;;
2022/06/13 15:09:18;;;;;;;6.13;1.40;;;23.40;62.80;;;;;;4988927;28;20070;-89
2022/06/13 15:12:18;;;;;;;4.88;1.48;;;23.40;62.60;;;;;;5007606;28;20026;-93
2022/06/13 15:15:23;;;;;;;5.68;1.75;;;23.50;63.10;;;;;;5011573;28;20116;-92
2022/06/13 15:18:16;;;;;;;4.35;1.70;;;23.50;62.70;;;;;;4999890;28;20030;-92
2022/06/13 15:21:09;;;;;;;;;;;;;;;;;;;;;
2022/06/13 15:28:16;;;;;;;5.93;1.23;;;23.70;61.60;;;;;;5001527;28;20061;-91
2022/06/13 15:36:29;;;;;;;5.43;1.77;;;23.70;60.40;;;;;;4995485;28;20470;-87
2022/06/13 15:39:01;;;;;;;6.05;1.60;;;23.70;60.00;;;;;;5012445;28;20054;-92
2022/06/13 15:41:39;;;;;;;6.75;1.70;;;23.70;60.00;;;;;;5015526;28;20022;-93
2022/06/13 15:44:29;;;;;;;4.63;1.42;;;23.60;60.40;;;;;;5012155;28;20026;-94
2022/06/13 15:47:31;;;;;;;6.18;1.65;;;23.60;61.10;;;;;;5013894;28;20113;-92
2022/06/13 15:50:06;;;;;;;6.22;1.40;;;23.70;61.70;;;;;;5014280;28;20041;-90
2022/06/13 15:53:28;;;;;;;;;;;;;;;;;;;;;
2022/06/13 15:56:09;;;;;;;;;;;;;;;;;;;;;
2022/06/13 15:59:00;;;;;;;7.72;1.80;;;23.70;59.90;;;;;;5035005;28;20034;-93
2022/06/13 16:01:48;;;;;;;6.07;1.38;;;23.60;59.90;;;;;;5001294;28;20029;-94
2022/06/13 16:05:18;;;;;;;9.02;1.85;;;23.60;60.70;;;;;;5024233;28;20120;-89
2022/06/13 16:08:02;;;;;;;;;;;;;;;;;;;;;
2022/06/13 16:24:24;;;;;;;5.25;1.52;;;23.90;60.40;;;;;;5015127;28;20048;-86
2022/06/13 16:27:37;;;;;;;6.35;1.63;;;23.90;60.40;;;;;;5007327;28;20588;-87
2022/06/13 16:30:40;;;;;;;7.13;1.58;;;24.00;60.30;;;;;;5013012;28;20525;-88
2022/06/13 16:54:48;;;;;;;;;;;;;;;;;;;;;
2022/06/13 16:58:18;;;;;;;;;;;;;;;;;;;;;
2022/06/13 17:01:50;;;;;;;6.28;1.90;;;24.30;58.80;;;;;;4990791;28;20030;-87
2022/06/13 17:05:07;;;;;;;;;;;;;;;;;;;;;
2022/06/13 17:11:17;;;;;;;7.18;1.83;;;24.40;58.30;;;;;;4982388;28;20108;-90
2022/06/13 17:17:26;;;;;;;6.25;1.58;;;24.30;58.70;;;;;;4982984;28;20090;-89
2022/06/13 17:24:26;;;;;;;;;;;;;;;;;;;;;
2022/06/13 17:34:48;;;;;;;6.43;1.70;;;23.70;56.10;;;;;;5001372;28;20033;-89
2022/06/13 18:00:23;;;;;;;;;;;;;;;;;;;;;
2022/06/13 18:03:09;;;;;;;6.70;1.95;;;22.80;59.10;;;;;;4997623;28;20033;-87
2022/06/13 18:09:28;;;;;;;;;;;;;;;;;;;;;
2022/06/13 18:13:34;;;;;;;6.75;1.88;;;22.60;60.10;;;;;;4997670;28;20052;-88
2022/06/13 18:15:43;;;;;;;6.00;1.63;;;22.60;59.90;;;;;;4967634;28;20085;-87
2022/06/13 18:22:28;;;;;;;;;;;;;;;;;;;;;
2022/06/13 18:32:11;;;;;;;9.23;2.83;;;22.30;61.30;;;;;;4926814;29;20035;-86
2022/06/13 18:35:10;;;;;;;8.32;2.15;;;22.30;61.30;;;;;;4945617;28;20058;-85
2022/06/13 18:38:26;;;;;;;6.93;1.98;;;22.20;61.70;;;;;;4982370;28;20458;-87
2022/06/13 18:41:16;;;;;;;7.45;1.85;;;22.20;62.00;;;;;;4956681;28;20125;-86
2022/06/13 18:47:24;;;;;;;;;;;;;;;;;;;;;
2022/06/13 18:51:02;;;;;;;8.43;1.77;;;22.10;60.60;;;;;;4995385;28;20030;-87
2022/06/13 19:53:14;;;;;;;;;;;;;;;;;;;;;
2022/06/13 20:00:46;;;;;;;8.80;2.25;;;20.80;64.80;;;;;;4879732;29;20402;-89
2022/06/13 20:22:06;;;;;;;;;;;;;;;;;;;;;
2022/06/13 20:25:37;;;;;;;;;;;;;;;;;;;;;
2022/06/13 20:35:27;;;;;;;;;;;;;;;;;;;;;
2022/06/13 20:38:40;;;;;;;;;;;;;;;;;;;;;
2022/06/13 20:45:04;;;;;;;7.32;1.95;;;20.00;68.10;;;;;;4973724;28;20511;-84
2022/06/13 20:48:15;;;;;;;;;;;;;;;;;;;;;
2022/06/13 21:03:49;;;;;;;7.22;2.55;;;19.60;69.70;;;;;;4932089;29;20059;-86
2022/06/13 21:10:26;;;;;;;6.75;1.92;;;19.50;70.20;;;;;;5017661;28;20165;-86
2022/06/13 21:13:06;;;;;;;8.23;2.20;;;19.40;70.20;;;;;;5001626;28;20033;-85
2022/06/13 21:15:52;;;;;;;;;;;;;;;;;;;;;
2022/06/13 21:21:47;;;;;;;10.20;2.40;;;19.20;70.50;;;;;;4997802;28;20033;-87
2022/06/13 21:24:52;;;;;;;7.60;2.15;;;19.20;70.50;;;;;;5010440;28;20030;-87
2022/06/13 21:27:53;;;;;;;6.85;2.13;;;19.20;71.10;;;;;;5017367;28;20034;-87
2022/06/13 21:34:03;;;;;;;10.60;2.60;;;19.00;71.50;;;;;;4988269;28;20112;-88
2022/06/13 21:37:20;;;;;;;;;;;;;;;;;;;;;
2022/06/13 21:40:17;;;;;;;9.45;1.92;;;18.90;71.20;;;;;;5022667;28;20498;-87
2022/06/13 21:43:35;;;;;;;;;;;;;;;;;;;;;
2022/06/13 21:46:40;;;;;;;;;;;;;;;;;;;;;
2022/06/13 21:52:48;;;;;;;;;;;;;;;;;;;;;
2022/06/13 21:58:53;;;;;;;;;;;;;;;;;;;;;
2022/06/13 22:02:13;;;;;;;7.00;1.88;;;18.60;72.60;;;;;;5016719;28;20026;-87
2022/06/13 22:04:51;;;;;;;10.80;2.15;;;18.50;72.60;;;;;;4991161;28;20026;-86
2022/06/13 22:07:51;;;;;;;;;;;;;;;;;;;;;
2022/06/13 22:17:01;;;;;;;10.75;2.30;;;18.30;73.30;;;;;;5005059;28;20022;-87
2022/06/13 22:20:22;;;;;;;;;;;;;;;;;;;;;
2022/06/13 22:23:28;;;;;;;7.13;2.10;;;18.20;74.00;;;;;;5015828;28;20030;-87
2022/06/13 22:29:16;;;;;;;11.25;2.28;;;18.10;74.50;;;;;;5008972;28;20034;-86
2022/06/13 22:32:13;;;;;;;8.45;2.25;;;18.10;74.30;;;;;;4998763;28;20053;-88
2022/06/13 22:38:14;;;;;;;;;;;;;;;;;;;;;
2022/06/13 22:41:17;;;;;;;;;;;;;;;;;;;;;
2022/06/13 22:51:24;;;;;;;9.57;2.45;;;17.70;75.00;;;;;;4955188;28;20132;-88
2022/06/13 22:54:39;;;;;;;7.53;2.28;;;17.70;75.60;;;;;;4950223;28;20073;-88
2022/06/13 23:00:27;;;;;;;;;;;;;;;;;;;;;
2022/06/13 23:03:28;;;;;;;7.68;2.10;;;17.50;76.10;;;;;;5015724;28;20050;-88
2022/06/13 23:06:25;;;;;;;8.75;2.38;;;17.50;76.10;;;;;;4996337;28;20076;-88
2022/06/13 23:09:19;;;;;;;9.88;2.42;;;17.50;76.40;;;;;;4987060;28;20042;-87
2022/06/13 23:12:09;;;;;;;7.70;2.35;;;17.40;76.40;;;;;;5015339;28;20040;-87
2022/06/13 23:18:41;;;;;;;5.95;2.00;;;17.30;76.80;;;;;;5005535;28;20029;-87
2022/06/13 23:24:30;;;;;;;11.20;2.30;;;17.20;77.00;;;;;;4961271;28;20031;-86
2022/06/13 23:27:16;;;;;;;10.32;2.15;;;17.20;77.60;;;;;;4958874;28;20090;-87
2022/06/13 23:33:17;;;;;;;;;;;;;;;;;;;;;